sensor_id;sensor_type;location;lat;lon;timestamp;pressure;altitude;pressure_sealevel;temperature;humidity
20394;BME280;10356;50.544;9.642;2023-05-17T00:01:27;98758.63;;;7.02;86.50
20394;BME280;10356;50.544;9.642;2023-05-17T00:03:54;98762.31;;;6.98;86.44
20394;BME280;10356;50.544;9.642;2023-05-17T00:06:20;98760.06;;;6.92;86.84
20394;BME280;10356;50.544;9.642;2023-05-17T00:08:48;98759.22;;;6.92;87.08
20394;BME280;10356;50.544;9.642;2023-05-17T00:11:15;98762.81;;;6.89;87.21
20394;BME280;10356;50.544;9.642;2023-05-17T00:13:41;98755.22;;;6.86;87.47
20394;BME280;10356;50.544;9.642;2023-05-17T00:16:08;98764.06;;;6.82;87.40
20394;BME280;10356;50.544;9.642;2023-05-17T00:18:34;98761.56;;;6.81;87.54
20394;BME280;10356;50.544;9.642;2023-05-17T00:21:01;98754.19;;;6.73;87.76
20394;BME280;10356;50.544;9.642;2023-05-17T00:23:27;98753.63;;;6.68;88.17
20394;BME280;10356;50.544;9.642;2023-05-17T00:25:55;98752.88;;;6.66;88.30
20394;BME280;10356;50.544;9.642;2023-05-17T00:28:21;98756.78;;;6.57;88.87
20394;BME280;10356;50.544;9.642;2023-05-17T00:30:48;98763.13;;;6.52;89.29
20394;BME280;10356;50.544;9.642;2023-05-17T00:33:15;98764.03;;;6.51;89.66
20394;BME280;10356;50.544;9.642;2023-05-17T00:35:41;98766.28;;;6.41;90.49
20394;BME280;10356;50.544;9.642;2023-05-17T00:38:08;98765.44;;;6.41;90.48
20394;BME280;10356;50.544;9.642;2023-05-17T00:40:34;98765.75;;;6.35;90.65
20394;BME280;10356;50.544;9.642;2023-05-17T00:43:02;98767.81;;;6.28;90.76
20394;BME280;10356;50.544;9.642;2023-05-17T00:45:29;98768.81;;;6.26;90.87
20394;BME280;10356;50.544;9.642;2023-05-17T00:47:55;98766.56;;;6.20;91.19
20394;BME280;10356;50.544;9.642;2023-05-17T00:50:22;98764.19;;;6.15;91.96
20394;BME280;10356;50.544;9.642;2023-05-17T00:52:48;98766.69;;;6.17;91.88
20394;BME280;10356;50.544;9.642;2023-05-17T00:55:15;98766.88;;;6.14;92.07
20394;BME280;10356;50.544;9.642;2023-05-17T00:57:43;98762.78;;;6.10;92.14
20394;BME280;10356;50.544;9.642;2023-05-17T01:00:12;98768.16;;;6.05;92.98
20394;BME280;10356;50.544;9.642;2023-05-17T01:02:39;98770.84;;;6.04;92.81
20394;BME280;10356;50.544;9.642;2023-05-17T01:05:06;98767.63;;;5.99;92.94
20394;BME280;10356;50.544;9.642;2023-05-17T01:07:32;98774.63;;;5.97;92.83
20394;BME280;10356;50.544;9.642;2023-05-17T01:09:59;98773.75;;;5.98;92.73
20394;BME280;10356;50.544;9.642;2023-05-17T01:12:31;98774.50;;;6.00;93.15
20394;BME280;10356;50.544;9.642;2023-05-17T01:15:09;98778.28;;;5.92;92.89
20394;BME280;10356;50.544;9.642;2023-05-17T01:17:49;98768.44;;;5.83;93.60
20394;BME280;10356;50.544;9.642;2023-05-17T01:20:20;98775.69;;;5.75;93.70
20394;BME280;10356;50.544;9.642;2023-05-17T01:23:03;98779.56;;;5.67;93.94
20394;BME280;10356;50.544;9.642;2023-05-17T01:25:41;98778.88;;;5.63;94.60
20394;BME280;10356;50.544;9.642;2023-05-17T01:28:16;98774.31;;;5.68;94.35
20394;BME280;10356;50.544;9.642;2023-05-17T01:30:46;98782.22;;;5.65;94.78
20394;BME280;10356;50.544;9.642;2023-05-17T01:33:15;98786.66;;;5.63;94.47
20394;BME280;10356;50.544;9.642;2023-05-17T01:35:42;98785.25;;;5.56;94.87
20394;BME280;10356;50.544;9.642;2023-05-17T01:38:09;98790.63;;;5.52;95.32
20394;BME280;10356;50.544;9.642;2023-05-17T01:40:40;98790.59;;;5.53;95.12
20394;BME280;10356;50.544;9.642;2023-05-17T01:43:20;98796.94;;;5.46;95.36
20394;BME280;10356;50.544;9.642;2023-05-17T01:45:56;98797.88;;;5.45;95.70
20394;BME280;10356;50.544;9.642;2023-05-17T01:48:30;98802.56;;;5.37;95.81
20394;BME280;10356;50.544;9.642;2023-05-17T01:50:57;98808.72;;;5.35;96.02
20394;BME280;10356;50.544;9.642;2023-05-17T01:53:29;98809.59;;;5.34;96.01
20394;BME280;10356;50.544;9.642;2023-05-17T01:56:02;98812.44;;;5.29;96.47
20394;BME280;10356;50.544;9.642;2023-05-17T01:58:39;98822.00;;;5.27;96.23
20394;BME280;10356;50.544;9.642;2023-05-17T02:01:09;98817.88;;;5.23;96.53
20394;BME280;10356;50.544;9.642;2023-05-17T02:03:36;98829.03;;;5.24;96.76
20394;BME280;10356;50.544;9.642;2023-05-17T02:06:03;98829.88;;;5.24;96.80
20394;BME280;10356;50.544;9.642;2023-05-17T02:08:30;98827.09;;;5.29;96.93
20394;BME280;10356;50.544;9.642;2023-05-17T02:10:56;98822.59;;;5.32;96.72
20394;BME280;10356;50.544;9.642;2023-05-17T02:13:22;98825.97;;;5.34;97.02
20394;BME280;10356;50.544;9.642;2023-05-17T02:15:50;98830.75;;;5.42;96.98
20394;BME280;10356;50.544;9.642;2023-05-17T02:18:17;98827.47;;;5.38;97.18
20394;BME280;10356;50.544;9.642;2023-05-17T02:20:46;98825.66;;;5.40;97.52
20394;BME280;10356;50.544;9.642;2023-05-17T02:23:12;98822.41;;;5.37;97.66
20394;BME280;10356;50.544;9.642;2023-05-17T02:25:38;98830.06;;;5.38;97.72
20394;BME280;10356;50.544;9.642;2023-05-17T02:28:05;98831.03;;;5.36;97.88
20394;BME280;10356;50.544;9.642;2023-05-17T02:30:31;98832.81;;;5.35;98.24
20394;BME280;10356;50.544;9.642;2023-05-17T02:32:59;98834.63;;;5.33;98.39
20394;BME280;10356;50.544;9.642;2023-05-17T02:35:25;98827.97;;;5.28;98.90
20394;BME280;10356;50.544;9.642;2023-05-17T02:37:52;98834.63;;;5.33;99.03
20394;BME280;10356;50.544;9.642;2023-05-17T02:40:18;98822.47;;;5.35;98.48
20394;BME280;10356;50.544;9.642;2023-05-17T02:42:45;98825.81;;;5.37;98.95
20394;BME280;10356;50.544;9.642;2023-05-17T02:45:11;98831.00;;;5.37;98.93
20394;BME280;10356;50.544;9.642;2023-05-17T02:47:38;98831.97;;;5.35;99.14
20394;BME280;10356;50.544;9.642;2023-05-17T02:50:06;98832.81;;;5.35;99.06
20394;BME280;10356;50.544;9.642;2023-05-17T02:52:33;98836.44;;;5.31;99.00
20394;BME280;10356;50.544;9.642;2023-05-17T02:54:59;98829.88;;;5.24;99.41
20394;BME280;10356;50.544;9.642;2023-05-17T02:57:26;98826.53;;;5.22;99.13
20394;BME280;10356;50.544;9.642;2023-05-17T02:59:52;98826.53;;;5.22;99.15
20394;BME280;10356;50.544;9.642;2023-05-17T03:02:19;98826.53;;;5.22;98.78
20394;BME280;10356;50.544;9.642;2023-05-17T03:04:45;98826.69;;;5.19;99.33
20394;BME280;10356;50.544;9.642;2023-05-17T03:07:13;98829.59;;;5.11;99.38
20394;BME280;10356;50.544;9.642;2023-05-17T03:09:40;98839.53;;;5.02;100.00
20394;BME280;10356;50.544;9.642;2023-05-17T03:12:08;98839.53;;;5.02;100.00
20394;BME280;10356;50.544;9.642;2023-05-17T03:14:34;98836.03;;;5.03;100.00
20394;BME280;10356;50.544;9.642;2023-05-17T03:17:01;98836.03;;;5.03;100.00
20394;BME280;10356;50.544;9.642;2023-05-17T03:19:27;98838.31;;;5.09;100.00
20394;BME280;10356;50.544;9.642;2023-05-17T03:21:54;98841.81;;;5.08;100.00
20394;BME280;10356;50.544;9.642;2023-05-17T03:24:21;98842.44;;;5.13;100.00
20394;BME280;10356;50.544;9.642;2023-05-17T03:26:48;98846.31;;;5.23;100.00
20394;BME280;10356;50.544;9.642;2023-05-17T03:29:14;98851.09;;;5.31;100.00
20394;BME280;10356;50.544;9.642;2023-05-17T03:31:41;98847.53;;;5.33;100.00
20394;BME280;10356;50.544;9.642;2023-05-17T03:34:07;98850.31;;;5.47;100.00
20394;BME280;10356;50.544;9.642;2023-05-17T03:36:34;98847.28;;;5.56;100.00
20394;BME280;10356;50.544;9.642;2023-05-17T03:39:00;98852.03;;;5.65;100.00
20394;BME280;10356;50.544;9.642;2023-05-17T03:41:28;98859.50;;;5.71;100.00
20394;BME280;10356;50.544;9.642;2023-05-17T03:43:55;98858.44;;;5.75;100.00
20394;BME280;10356;50.544;9.642;2023-05-17T03:46:21;98863.31;;;5.81;100.00
20394;BME280;10356;50.544;9.642;2023-05-17T03:48:47;98858.69;;;5.88;100.00
20394;BME280;10356;50.544;9.642;2023-05-17T03:51:14;98860.16;;;5.93;100.00
20394;BME280;10356;50.544;9.642;2023-05-17T03:53:41;98860.75;;;5.99;100.00
20394;BME280;10356;50.544;9.642;2023-05-17T03:56:07;98863.13;;;6.03;100.00
20394;BME280;10356;50.544;9.642;2023-05-17T03:58:35;98868.84;;;6.10;100.00
20394;BME280;10356;50.544;9.642;2023-05-17T04:01:02;98862.72;;;6.11;100.00
20394;BME280;10356;50.544;9.642;2023-05-17T04:03:28;98860.47;;;6.22;100.00
20394;BME280;10356;50.544;9.642;2023-05-17T04:06:00;98864.56;;;6.26;100.00
20394;BME280;10356;50.544;9.642;2023-05-17T04:08:26;98863.31;;;6.33;99.40
20394;BME280;10356;50.544;9.642;2023-05-17T04:10:53;98856.78;;;6.43;99.28
20394;BME280;10356;50.544;9.642;2023-05-17T04:13:19;98865.75;;;6.53;98.97
20394;BME280;10356;50.544;9.642;2023-05-17T04:15:47;98860.19;;;6.60;98.46
20394;BME280;10356;50.544;9.642;2023-05-17T04:18:13;98858.84;;;6.69;98.56
20394;BME280;10356;50.544;9.642;2023-05-17T04:20:41;98852.38;;;6.77;98.17
20394;BME280;10356;50.544;9.642;2023-05-17T04:23:07;98858.22;;;6.81;97.74
20394;BME280;10356;50.544;9.642;2023-05-17T04:25:34;98853.13;;;6.79;97.97
20394;BME280;10356;50.544;9.642;2023-05-17T04:28:01;98866.91;;;6.80;97.90
20394;BME280;10356;50.544;9.642;2023-05-17T04:30:27;98866.06;;;6.79;98.25
20394;BME280;10356;50.544;9.642;2023-05-17T04:32:55;98867.75;;;6.81;99.05
20394;BME280;10356;50.544;9.642;2023-05-17T04:35:22;98864.22;;;6.82;99.28
20394;BME280;10356;50.544;9.642;2023-05-17T04:37:49;98862.31;;;6.85;99.72
20394;BME280;10356;50.544;9.642;2023-05-17T04:40:15;98862.75;;;6.93;99.54
20394;BME280;10356;50.544;9.642;2023-05-17T04:42:42;98867.28;;;7.05;99.15
20394;BME280;10356;50.544;9.642;2023-05-17T04:45:09;98866.81;;;7.14;98.81
20394;BME280;10356;50.544;9.642;2023-05-17T04:47:35;98861.28;;;7.20;97.94
20394;BME280;10356;50.544;9.642;2023-05-17T04:50:04;98870.38;;;7.27;97.42
20394;BME280;10356;50.544;9.642;2023-05-17T04:52:31;98874.00;;;7.40;97.04
20394;BME280;10356;50.544;9.642;2023-05-17T04:54:57;98875.25;;;7.49;95.99
20394;BME280;10356;50.544;9.642;2023-05-17T04:57:24;98881.09;;;7.52;95.27
20394;BME280;10356;50.544;9.642;2023-05-17T04:59:50;98884.34;;;7.56;94.71
20394;BME280;10356;50.544;9.642;2023-05-17T05:02:16;98895.38;;;7.59;95.29
20394;BME280;10356;50.544;9.642;2023-05-17T05:04:43;98897.41;;;7.70;95.63
20394;BME280;10356;50.544;9.642;2023-05-17T05:07:11;98890.88;;;7.79;95.55
20394;BME280;10356;50.544;9.642;2023-05-17T05:09:37;98902.59;;;7.86;95.64
20394;BME280;10356;50.544;9.642;2023-05-17T05:12:05;98897.06;;;7.92;95.08
20394;BME280;10356;50.544;9.642;2023-05-17T05:14:31;98903.91;;;7.93;94.98
20394;BME280;10356;50.544;9.642;2023-05-17T05:16:58;98903.97;;;8.07;94.85
20394;BME280;10356;50.544;9.642;2023-05-17T05:19:24;98904.41;;;7.99;93.32
20394;BME280;10356;50.544;9.642;2023-05-17T05:21:51;98907.50;;;8.06;94.79
20394;BME280;10356;50.544;9.642;2023-05-17T05:24:18;98914.00;;;8.13;93.85
20394;BME280;10356;50.544;9.642;2023-05-17T05:26:45;98918.56;;;8.23;93.92
20394;BME280;10356;50.544;9.642;2023-05-17T05:29:12;98919.16;;;8.28;93.95
20394;BME280;10356;50.544;9.642;2023-05-17T05:31:38;98927.44;;;8.35;93.27
20394;BME280;10356;50.544;9.642;2023-05-17T05:34:05;98932.28;;;8.41;92.99
20394;BME280;10356;50.544;9.642;2023-05-17T05:36:31;98938.03;;;8.32;92.51
20394;BME280;10356;50.544;9.642;2023-05-17T05:38:58;98938.69;;;8.35;92.71
20394;BME280;10356;50.544;9.642;2023-05-17T05:41:26;98943.41;;;8.43;93.71
20394;BME280;10356;50.544;9.642;2023-05-17T05:43:52;98947.53;;;8.61;93.23
20394;BME280;10356;50.544;9.642;2023-05-17T05:46:19;98947.56;;;8.75;92.82
20394;BME280;10356;50.544;9.642;2023-05-17T05:48:45;98947.03;;;8.84;92.95
20394;BME280;10356;50.544;9.642;2023-05-17T05:51:12;98949.09;;;8.93;90.53
20394;BME280;10356;50.544;9.642;2023-05-17T05:53:38;98951.88;;;9.04;90.34
20394;BME280;10356;50.544;9.642;2023-05-17T05:56:05;98959.50;;;9.07;90.39
20394;BME280;10356;50.544;9.642;2023-05-17T05:58:33;98950.78;;;9.08;91.25
20394;BME280;10356;50.544;9.642;2023-05-17T06:00:59;98958.94;;;9.16;90.25
20394;BME280;10356;50.544;9.642;2023-05-17T06:03:26;98961.72;;;8.99;89.57
20394;BME280;10356;50.544;9.642;2023-05-17T06:05:52;98961.53;;;9.02;90.41
20394;BME280;10356;50.544;9.642;2023-05-17T06:08:19;98962.94;;;9.22;90.73
20394;BME280;10356;50.544;9.642;2023-05-17T06:10:45;98972.88;;;9.15;90.19
20394;BME280;10356;50.544;9.642;2023-05-17T06:13:12;98962.28;;;9.18;89.70
20394;BME280;10356;50.544;9.642;2023-05-17T06:15:40;98971.38;;;9.25;89.16
20394;BME280;10356;50.544;9.642;2023-05-17T06:18:06;98966.19;;;9.40;89.04
20394;BME280;10356;50.544;9.642;2023-05-17T06:20:33;98972.50;;;9.21;88.97
20394;BME280;10356;50.544;9.642;2023-05-17T06:22:59;98968.78;;;9.25;88.61
20394;BME280;10356;50.544;9.642;2023-05-17T06:25:26;98975.47;;;9.44;87.32
20394;BME280;10356;50.544;9.642;2023-05-17T06:27:52;98978.72;;;9.47;87.05
20394;BME280;10356;50.544;9.642;2023-05-17T06:30:19;98978.50;;;9.64;86.37
20394;BME280;10356;50.544;9.642;2023-05-17T06:32:47;98979.81;;;9.71;85.74
20394;BME280;10356;50.544;9.642;2023-05-17T06:35:14;98968.72;;;9.82;84.98
20394;BME280;10356;50.544;9.642;2023-05-17T06:37:40;98972.75;;;10.00;83.38
20394;BME280;10356;50.544;9.642;2023-05-17T06:40:07;98977.88;;;10.16;81.96
20394;BME280;10356;50.544;9.642;2023-05-17T06:42:34;98990.06;;;10.01;82.18
20394;BME280;10356;50.544;9.642;2023-05-17T06:45:01;98989.50;;;10.10;81.94
20394;BME280;10356;50.544;9.642;2023-05-17T06:47:27;98994.31;;;10.16;81.73
20394;BME280;10356;50.544;9.642;2023-05-17T06:49:55;98988.66;;;10.24;81.82
20394;BME280;10356;50.544;9.642;2023-05-17T06:52:22;98996.75;;;10.46;81.53
20394;BME280;10356;50.544;9.642;2023-05-17T06:54:48;98995.91;;;10.45;80.76
20394;BME280;10356;50.544;9.642;2023-05-17T06:57:15;98989.28;;;10.66;78.03
20394;BME280;10356;50.544;9.642;2023-05-17T06:59:43;98990.22;;;10.65;78.44
20394;BME280;10356;50.544;9.642;2023-05-17T07:02:10;98990.97;;;10.41;78.25
20394;BME280;10356;50.544;9.642;2023-05-17T07:04:36;98997.38;;;10.49;80.08
20394;BME280;10356;50.544;9.642;2023-05-17T07:07:04;98998.44;;;10.59;77.31
20394;BME280;10356;50.544;9.642;2023-05-17T07:09:31;99001.69;;;10.75;76.72
20394;BME280;10356;50.544;9.642;2023-05-17T07:11:57;98996.81;;;10.83;76.82
20394;BME280;10356;50.544;9.642;2023-05-17T07:14:23;99003.53;;;10.61;76.38
20394;BME280;10356;50.544;9.642;2023-05-17T07:16:50;98999.25;;;10.47;77.12
20394;BME280;10356;50.544;9.642;2023-05-17T07:19:16;99000.72;;;10.51;76.09
20394;BME280;10356;50.544;9.642;2023-05-17T07:21:45;99002.97;;;10.43;76.49
20394;BME280;10356;50.544;9.642;2023-05-17T07:24:13;99001.72;;;10.36;76.94
20394;BME280;10356;50.544;9.642;2023-05-17T07:26:39;99009.59;;;10.35;76.75
20394;BME280;10356;50.544;9.642;2023-05-17T07:29:06;99010.22;;;10.26;77.24
20394;BME280;10356;50.544;9.642;2023-05-17T07:31:32;99004.28;;;10.24;77.83
20394;BME280;10356;50.544;9.642;2023-05-17T07:33:59;99007.50;;;10.27;77.09
20394;BME280;10356;50.544;9.642;2023-05-17T07:36:25;99012.72;;;10.27;77.17
20394;BME280;10356;50.544;9.642;2023-05-17T07:38:54;99016.97;;;10.42;76.15
20394;BME280;10356;50.544;9.642;2023-05-17T07:41:22;99013.75;;;10.51;76.61
20394;BME280;10356;50.544;9.642;2023-05-17T07:43:50;99004.53;;;10.85;77.15
20394;BME280;10356;50.544;9.642;2023-05-17T07:46:16;99008.97;;;11.22;74.78
20394;BME280;10356;50.544;9.642;2023-05-17T07:48:43;99019.41;;;11.22;75.16
20394;BME280;10356;50.544;9.642;2023-05-17T07:51:10;99015.00;;;11.73;72.79
20394;BME280;10356;50.544;9.642;2023-05-17T07:53:36;99022.91;;;11.97;71.28
20394;BME280;10356;50.544;9.642;2023-05-17T07:56:03;99014.19;;;12.09;65.41
20394;BME280;10356;50.544;9.642;2023-05-17T07:58:31;99022.16;;;12.31;64.11
20394;BME280;10356;50.544;9.642;2023-05-17T08:00:58;99030.31;;;12.26;60.79
20394;BME280;10356;50.544;9.642;2023-05-17T08:03:24;99015.72;;;11.88;59.78
20394;BME280;10356;50.544;9.642;2023-05-17T08:05:52;99022.13;;;11.71;60.73
20394;BME280;10356;50.544;9.642;2023-05-17T08:08:19;99029.50;;;11.52;62.99
20394;BME280;10356;50.544;9.642;2023-05-17T08:10:45;99020.66;;;11.67;66.85
20394;BME280;10356;50.544;9.642;2023-05-17T08:13:12;99024.38;;;11.88;66.82
20394;BME280;10356;50.544;9.642;2023-05-17T08:15:40;99019.06;;;12.26;60.83
20394;BME280;10356;50.544;9.642;2023-05-17T08:18:06;99016.53;;;12.24;61.71
20394;BME280;10356;50.544;9.642;2023-05-17T08:20:33;99012.97;;;12.25;58.62
20394;BME280;10356;50.544;9.642;2023-05-17T08:22:59;99018.78;;;12.41;60.20
20394;BME280;10356;50.544;9.642;2023-05-17T08:25:26;99007.00;;;12.36;59.30
20394;BME280;10356;50.544;9.642;2023-05-17T08:27:52;99001.88;;;11.98;60.22
20394;BME280;10356;50.544;9.642;2023-05-17T08:30:19;99000.13;;;11.99;58.88
20394;BME280;10356;50.544;9.642;2023-05-17T08:32:47;99007.19;;;12.09;58.50
20394;BME280;10356;50.544;9.642;2023-05-17T08:35:13;99009.09;;;13.24;54.54
20394;BME280;10356;50.544;9.642;2023-05-17T08:37:39;99008.50;;;13.87;52.18
20394;BME280;10356;50.544;9.642;2023-05-17T08:40:07;98999.06;;;14.06;51.03
20394;BME280;10356;50.544;9.642;2023-05-17T08:42:35;98995.81;;;14.14;49.13
20394;BME280;10356;50.544;9.642;2023-05-17T08:45:03;99007.53;;;13.10;51.24
20394;BME280;10356;50.544;9.642;2023-05-17T08:47:31;98999.72;;;13.32;52.24
20394;BME280;10356;50.544;9.642;2023-05-17T08:49:59;99008.00;;;13.15;53.68
20394;BME280;10356;50.544;9.642;2023-05-17T08:52:30;99005.59;;;12.78;53.78
20394;BME280;10356;50.544;9.642;2023-05-17T08:54:58;99014.19;;;12.80;54.15
20394;BME280;10356;50.544;9.642;2023-05-17T08:57:27;99009.72;;;12.93;55.68
20394;BME280;10356;50.544;9.642;2023-05-17T08:59:57;99018.41;;;12.70;55.57
20394;BME280;10356;50.544;9.642;2023-05-17T09:02:25;99020.13;;;12.82;56.44
20394;BME280;10356;50.544;9.642;2023-05-17T09:04:51;99012.00;;;12.74;56.46
20394;BME280;10356;50.544;9.642;2023-05-17T09:07:21;99019.88;;;12.85;58.04
20394;BME280;10356;50.544;9.642;2023-05-17T09:09:49;99021.50;;;12.75;57.31
20394;BME280;10356;50.544;9.642;2023-05-17T09:12:17;99019.97;;;12.48;59.59
20394;BME280;10356;50.544;9.642;2023-05-17T09:14:43;99018.47;;;12.10;58.80
20394;BME280;10356;50.544;9.642;2023-05-17T09:17:13;99017.41;;;12.12;58.85
20394;BME280;10356;50.544;9.642;2023-05-17T09:19:42;99020.38;;;12.08;58.33
20394;BME280;10356;50.544;9.642;2023-05-17T09:22:11;99021.19;;;12.08;55.27
20394;BME280;10356;50.544;9.642;2023-05-17T09:24:40;99022.28;;;12.29;56.17
20394;BME280;10356;50.544;9.642;2023-05-17T09:27:07;99010.03;;;13.12;54.16
20394;BME280;10356;50.544;9.642;2023-05-17T09:29:34;99016.59;;;12.94;50.78
20394;BME280;10356;50.544;9.642;2023-05-17T09:32:14;99008.84;;;13.16;51.13
20394;BME280;10356;50.544;9.642;2023-05-17T09:34:44;99021.91;;;13.16;52.23
20394;BME280;10356;50.544;9.642;2023-05-17T09:37:11;99020.47;;;12.77;53.01
20394;BME280;10356;50.544;9.642;2023-05-17T09:39:40;99015.66;;;12.95;54.04
20394;BME280;10356;50.544;9.642;2023-05-17T09:42:07;99035.50;;;12.86;54.02
20394;BME280;10356;50.544;9.642;2023-05-17T09:44:44;99031.75;;;12.78;52.91
20394;BME280;10356;50.544;9.642;2023-05-17T09:47:20;99036.69;;;12.93;50.99
20394;BME280;10356;50.544;9.642;2023-05-17T09:49:47;99026.97;;;12.72;50.63
20394;BME280;10356;50.544;9.642;2023-05-17T09:52:16;99030.84;;;12.90;51.44
20394;BME280;10356;50.544;9.642;2023-05-17T09:54:50;99024.56;;;13.27;52.42
20394;BME280;10356;50.544;9.642;2023-05-17T09:57:17;99027.56;;;13.89;48.52
20394;BME280;10356;50.544;9.642;2023-05-17T09:59:44;99019.16;;;14.50;46.67
20394;BME280;10356;50.544;9.642;2023-05-17T10:02:18;99017.09;;;15.06;44.01
20394;BME280;10356;50.544;9.642;2023-05-17T10:04:45;99023.78;;;14.99;42.85
20394;BME280;10356;50.544;9.642;2023-05-17T10:07:15;99021.13;;;15.51;45.61
20394;BME280;10356;50.544;9.642;2023-05-17T10:09:46;99015.78;;;15.62;43.21
20394;BME280;10356;50.544;9.642;2023-05-17T10:12:15;99023.06;;;15.29;41.91
20394;BME280;10356;50.544;9.642;2023-05-17T10:14:42;99027.63;;;15.77;42.73
20394;BME280;10356;50.544;9.642;2023-05-17T10:17:08;99032.72;;;15.28;41.37
20394;BME280;10356;50.544;9.642;2023-05-17T10:19:36;99027.75;;;14.41;42.75
20394;BME280;10356;50.544;9.642;2023-05-17T10:22:04;99025.53;;;15.30;44.02
20394;BME280;10356;50.544;9.642;2023-05-17T10:24:31;99014.13;;;15.61;42.87
20394;BME280;10356;50.544;9.642;2023-05-17T10:27:01;99015.72;;;15.73;43.03
20394;BME280;10356;50.544;9.642;2023-05-17T10:29:28;99020.84;;;15.34;43.34
20394;BME280;10356;50.544;9.642;2023-05-17T10:31:57;99020.94;;;15.02;45.94
20394;BME280;10356;50.544;9.642;2023-05-17T10:34:24;99027.50;;;14.44;46.41
20394;BME280;10356;50.544;9.642;2023-05-17T10:36:52;99025.03;;;14.63;45.11
20394;BME280;10356;50.544;9.642;2023-05-17T10:39:20;99028.72;;;14.72;45.30
20394;BME280;10356;50.544;9.642;2023-05-17T10:41:49;99024.44;;;14.91;46.06
20394;BME280;10356;50.544;9.642;2023-05-17T10:44:18;99036.38;;;14.64;44.21
20394;BME280;10356;50.544;9.642;2023-05-17T10:46:53;99025.72;;;15.18;43.46
20394;BME280;10356;50.544;9.642;2023-05-17T10:49:23;99028.56;;;15.46;41.06
20394;BME280;10356;50.544;9.642;2023-05-17T10:51:50;99018.41;;;16.02;40.71
20394;BME280;10356;50.544;9.642;2023-05-17T10:54:16;99023.53;;;16.91;40.95
20394;BME280;10356;50.544;9.642;2023-05-17T10:56:47;99019.94;;;16.73;39.87
20394;BME280;10356;50.544;9.642;2023-05-17T10:59:20;99034.81;;;15.75;42.58
20394;BME280;10356;50.544;9.642;2023-05-17T11:01:49;99033.06;;;15.85;41.50
20394;BME280;10356;50.544;9.642;2023-05-17T11:04:21;99030.78;;;15.71;42.14
20394;BME280;10356;50.544;9.642;2023-05-17T11:06:50;99024.38;;;15.23;43.46
20394;BME280;10356;50.544;9.642;2023-05-17T11:09:20;99033.59;;;15.38;43.09
20394;BME280;10356;50.544;9.642;2023-05-17T11:12:04;99034.00;;;15.54;43.67
20394;BME280;10356;50.544;9.642;2023-05-17T11:14:45;99028.69;;;15.03;43.80
20394;BME280;10356;50.544;9.642;2023-05-17T11:17:12;99027.72;;;15.46;43.69
20394;BME280;10356;50.544;9.642;2023-05-17T11:19:48;99030.28;;;15.87;43.71
20394;BME280;10356;50.544;9.642;2023-05-17T11:22:15;99021.94;;;15.31;44.17
20394;BME280;10356;50.544;9.642;2023-05-17T11:24:43;99024.56;;;15.31;43.62
20394;BME280;10356;50.544;9.642;2023-05-17T11:27:11;99023.59;;;14.91;44.40
20394;BME280;10356;50.544;9.642;2023-05-17T11:29:40;99027.84;;;15.03;44.32
20394;BME280;10356;50.544;9.642;2023-05-17T11:32:09;99027.97;;;15.22;42.79
20394;BME280;10356;50.544;9.642;2023-05-17T11:34:35;99022.19;;;15.69;43.10
20394;BME280;10356;50.544;9.642;2023-05-17T11:37:03;99020.50;;;15.98;43.15
20394;BME280;10356;50.544;9.642;2023-05-17T11:39:35;99021.34;;;16.58;40.03
20394;BME280;10356;50.544;9.642;2023-05-17T11:42:02;99020.22;;;17.08;40.60
20394;BME280;10356;50.544;9.642;2023-05-17T11:44:30;99011.94;;;16.84;41.58
20394;BME280;10356;50.544;9.642;2023-05-17T11:47:00;99024.13;;;16.66;41.76
20394;BME280;10356;50.544;9.642;2023-05-17T11:49:31;99025.47;;;16.60;40.88
20394;BME280;10356;50.544;9.642;2023-05-17T11:51:57;99018.09;;;16.26;42.19
20394;BME280;10356;50.544;9.642;2023-05-17T11:54:24;99018.97;;;16.93;40.79
20394;BME280;10356;50.544;9.642;2023-05-17T11:56:52;99030.63;;;16.91;39.77
20394;BME280;10356;50.544;9.642;2023-05-17T11:59:19;99017.31;;;17.02;40.95
20394;BME280;10356;50.544;9.642;2023-05-17T12:01:47;99014.25;;;17.72;38.82
20394;BME280;10356;50.544;9.642;2023-05-17T12:04:22;99013.88;;;18.48;38.23
20394;BME280;10356;50.544;9.642;2023-05-17T12:06:50;99018.72;;;17.61;41.41
20394;BME280;10356;50.544;9.642;2023-05-17T12:09:17;99016.75;;;16.98;40.58
20394;BME280;10356;50.544;9.642;2023-05-17T12:11:43;99004.00;;;17.69;40.24
20394;BME280;10356;50.544;9.642;2023-05-17T12:14:14;99008.53;;;17.30;39.29
20394;BME280;10356;50.544;9.642;2023-05-17T12:16:41;99011.66;;;16.68;41.31
20394;BME280;10356;50.544;9.642;2023-05-17T12:19:16;99006.00;;;17.38;39.92
20394;BME280;10356;50.544;9.642;2023-05-17T12:21:42;99017.31;;;18.04;37.35
20394;BME280;10356;50.544;9.642;2023-05-17T12:24:10;99004.09;;;18.58;36.89
20394;BME280;10356;50.544;9.642;2023-05-17T12:26:41;99003.03;;;18.24;36.59
20394;BME280;10356;50.544;9.642;2023-05-17T12:29:08;98999.91;;;18.73;37.74
20394;BME280;10356;50.544;9.642;2023-05-17T12:31:37;99007.13;;;18.09;37.25
20394;BME280;10356;50.544;9.642;2023-05-17T12:34:05;99007.38;;;17.51;38.35
20394;BME280;10356;50.544;9.642;2023-05-17T12:36:33;98997.09;;;18.22;37.98
20394;BME280;10356;50.544;9.642;2023-05-17T12:39:02;98993.72;;;18.47;37.05
20394;BME280;10356;50.544;9.642;2023-05-17T12:41:31;98997.28;;;18.11;38.05
20394;BME280;10356;50.544;9.642;2023-05-17T12:43:58;98997.94;;;17.58;39.24
20394;BME280;10356;50.544;9.642;2023-05-17T12:46:27;98992.00;;;17.47;37.22
20394;BME280;10356;50.544;9.642;2023-05-17T12:48:54;98989.75;;;16.96;38.27
20394;BME280;10356;50.544;9.642;2023-05-17T12:51:21;98988.00;;;17.33;38.13
20394;BME280;10356;50.544;9.642;2023-05-17T12:53:49;98993.34;;;16.95;38.21
20394;BME280;10356;50.544;9.642;2023-05-17T12:56:18;98988.38;;;17.85;37.45
20394;BME280;10356;50.544;9.642;2023-05-17T12:59:05;98974.72;;;18.61;35.19
20394;BME280;10356;50.544;9.642;2023-05-17T13:01:33;98986.47;;;18.67;36.08
20394;BME280;10356;50.544;9.642;2023-05-17T13:03:59;98974.81;;;18.24;36.27
20394;BME280;10356;50.544;9.642;2023-05-17T13:06:26;98972.44;;;18.84;36.78
20394;BME280;10356;50.544;9.642;2023-05-17T13:08:59;98978.69;;;19.26;34.50